Time;durP1;ratioP1;P1;durP2;ratioP2;P2;SDS_P1;SDS_P2;PMS_P1;PMS_P2;Temp;Humidity;BMP_temperature;BMP_pressure;BME280_temperature;BME280_humidity;BME280_pressure;Samples;Min_cycle;Max_cycle;Signal;HPM_P1;HPM_P2
2023/03/30 00:02:07;;;;;;;;;;;;;;;;;;5033706;28;5064;-58
2023/03/30 00:04:33;;;;;;;;;;;;;;;;;;5041506;28;4713;-58
2023/03/30 00:06:58;;;;;;;;;;;;;;;;;;5038383;28;4806;-58
2023/03/30 00:09:31;;;;;;;;;;;;;;;;;;5047949;28;4463;-57
2023/03/30 00:12:01;;;;;;;;;;;;;;;;;;5046482;28;5101;-58
2023/03/30 00:14:29;;;;;;;;;;;;;;;;;;5031335;28;5078;-57
2023/03/30 00:16:55;;;;;;;;;;;;;;;;;;5048209;28;1156;-58
2023/03/30 00:19:20;;;;;;;;;;;;;;;;;;5047687;28;4796;-59
2023/03/30 00:21:46;;;;;;;;;;;;;;;;;;5047694;28;4396;-58
2023/03/30 00:24:11;;;;;;;;;;;;;;;;;;5046788;28;4614;-58
2023/03/30 00:26:36;;;;;;;;;;;;;;;;;;5047631;28;4755;-58
2023/03/30 00:29:01;;;;;;;;;;;;;;;;;;5046212;28;4835;-57
2023/03/30 00:31:27;;;;;;;;;;;;;;;;;;5036121;28;1681;-58
2023/03/30 00:33:52;;;;;;;;;;;;;;;;;;5045934;28;5049;-57
2023/03/30 00:36:17;;;;;;;;;;;;;;;;;;5030765;28;4694;-58
2023/03/30 00:38:42;;;;;;;;;;;;;;;;;;5048193;28;4762;-58
2023/03/30 00:41:08;;;;;;;;;;;;;;;;;;5045741;28;4679;-58
2023/03/30 00:43:33;;;;;;;;;;;;;;;;;;5048080;28;1133;-58
2023/03/30 00:45:59;;;;;;;;;;;;;;;;;;5046875;28;4541;-58
2023/03/30 00:48:28;;;;;;;;;;;;;;;;;;5047775;28;4971;-57
2023/03/30 00:50:53;;;;;;;;;;;;;;;;;;5050766;28;4686;-58
2023/03/30 00:53:28;;;;;;;;;;;;;;;;;;5051587;28;4417;-58
2023/03/30 00:55:54;;;;;;;;;;;;;;;;;;5052624;28;1173;-57
2023/03/30 00:58:20;;;;;;;;;;;;;;;;;;5048547;28;4389;-59
2023/03/30 01:00:46;;;;;;;;;;;;;;;;;;5044668;28;4496;-59
2023/03/30 01:03:31;;;;;;;;;;;;;;;;;;5040407;28;4989;-58
2023/03/30 01:05:57;;;;;;;;;;;;;;;;;;5033953;28;5044;-58
2023/03/30 01:08:22;;;;;;;;;;;;;;;;;;5083806;28;4443;-58
2023/03/30 01:10:48;;;;;;;;;;;;;;;;;;5050106;28;3198;-58
2023/03/30 01:13:14;;;;;;;;;;;;;;;;;;5050418;28;4555;-58
2023/03/30 01:15:43;;;;;;;;;;;;;;;;;;5074125;28;4573;-58
2023/03/30 01:18:23;;;;;;;;;;;;;;;;;;5058043;28;4458;-58
2023/03/30 01:21:07;;;;;;;;;;;;;;;;;;5048730;28;4549;-57
2023/03/30 01:23:34;;;;;;;;;;;;;;;;;;5050003;28;5062;-58
2023/03/30 01:25:59;;;;;;;;;;;;;;;;;;5051048;28;5061;-58
2023/03/30 01:28:36;;;;;;;;;;;;;;;;;;5051641;28;1113;-57
2023/03/30 01:31:14;;;;;;;;;;;;;;;;;;5057454;28;5849;-59
2023/03/30 01:34:11;;;;;;;;;;;;;;;;;;5043288;28;4845;-58
2023/03/30 01:36:49;;;;;;;;;;;;;;;;;;5033520;28;4679;-58
2023/03/30 01:39:20;;;;;;;;;;;;;;;;;;5045137;28;4518;-58
2023/03/30 01:41:57;;;;;;;;;;;;;;;;;;5038374;28;4621;-58
2023/03/30 01:44:22;;;;;;;;;;;;;;;;;;5051248;28;5104;-59
2023/03/30 01:46:49;;;;;;;;;;;;;;;;;;5051160;28;1065;-58
2023/03/30 01:49:16;;;;;;;;;;;;;;;;;;5048415;28;5090;-56
2023/03/30 01:51:44;;;;;;;;;;;;;;;;;;5048929;28;4458;-58
2023/03/30 01:54:11;;;;;;;;;;;;;;;;;;5082579;28;5011;-58
2023/03/30 01:56:39;;;;;;;;;;;;;;;;;;5027334;28;4636;-59
2023/03/30 01:59:11;;;;;;;;;;;;;;;;;;5048072;28;5251;-58
2023/03/30 02:01:37;;;;;;;;;;;;;;;;;;5068683;28;1443;-58
2023/03/30 02:04:03;;;;;;;;;;;;;;;;;;5060826;28;4888;-59
2023/03/30 02:06:29;;;;;;;;;;;;;;;;;;5050349;28;4687;-58
2023/03/30 02:08:54;;;;;;;;;;;;;;;;;;5049750;28;4656;-57
2023/03/30 02:11:21;;;;;;;;;;;;;;;;;;5050275;28;4947;-58
2023/03/30 02:13:49;;;;;;;;;;;;;;;;;;5049537;28;1069;-58
2023/03/30 02:16:15;;;;;;;;;;;;;;;;;;5064546;28;4513;-58
2023/03/30 02:18:40;;;;;;;;;;;;;;;;;;5049456;28;4554;-58
2023/03/30 02:21:06;;;;;;;;;;;;;;;;;;5049857;28;5206;-59
2023/03/30 02:23:33;;;;;;;;;;;;;;;;;;5046680;28;4695;-58
2023/03/30 02:25:59;;;;;;;;;;;;;;;;;;5050035;28;4490;-58
2023/03/30 02:28:24;;;;;;;;;;;;;;;;;;5049088;28;1139;-58
2023/03/30 02:30:50;;;;;;;;;;;;;;;;;;5043258;28;4640;-59
2023/03/30 02:33:35;;;;;;;;;;;;;;;;;;5036351;28;5320;-59
2023/03/30 02:36:03;;;;;;;;;;;;;;;;;;5047039;28;4862;-58
2023/03/30 02:38:38;;;;;;;;;;;;;;;;;;5049686;28;4637;-58
2023/03/30 02:41:15;;;;;;;;;;;;;;;;;;5049243;28;5131;-59
2023/03/30 02:43:40;;;;;;;;;;;;;;;;;;5080033;28;3192;-59
2023/03/30 02:46:38;;;;;;;;;;;;;;;;;;5049491;28;4464;-59
2023/03/30 02:49:06;;;;;;;;;;;;;;;;;;5038151;28;4514;-58
2023/03/30 02:51:34;;;;;;;;;;;;;;;;;;5044562;28;4451;-59
2023/03/30 02:54:04;;;;;;;;;;;;;;;;;;5047561;28;4500;-58
2023/03/30 02:56:36;;;;;;;;;;;;;;;;;;5078292;28;4952;-57
2023/03/30 02:59:03;;;;;;;;;;;;;;;;;;5048954;28;5015;-58
2023/03/30 03:01:28;;;;;;;;;;;;;;;;;;5080351;28;1392;-58
2023/03/30 03:03:57;;;;;;;;;;;;;;;;;;5048735;28;5004;-58
2023/03/30 03:06:22;;;;;;;;;;;;;;;;;;5080770;28;4748;-59
2023/03/30 03:08:48;;;;;;;;;;;;;;;;;;5080499;28;4754;-58
2023/03/30 03:11:13;;;;;;;;;;;;;;;;;;5048682;28;5143;-58
2023/03/30 03:13:39;;;;;;;;;;;;;;;;;;5049173;28;1096;-58
2023/03/30 03:16:06;;;;;;;;;;;;;;;;;;5044448;28;5136;-58
2023/03/30 03:18:33;;;;;;;;;;;;;;;;;;5048376;28;5049;-58
2023/03/30 03:20:59;;;;;;;;;;;;;;;;;;5044891;28;4452;-58
2023/03/30 03:23:24;;;;;;;;;;;;;;;;;;5034685;28;4576;-57
2023/03/30 03:25:50;;;;;;;;;;;;;;;;;;5049343;28;1918;-58
2023/03/30 03:28:15;;;;;;;;;;;;;;;;;;5048463;28;4950;-58
2023/03/30 03:30:41;;;;;;;;;;;;;;;;;;5043774;28;4406;-58
2023/03/30 03:33:06;;;;;;;;;;;;;;;;;;5048663;28;4586;-58
2023/03/30 03:35:32;;;;;;;;;;;;;;;;;;5047523;28;5100;-58
2023/03/30 03:37:57;;;;;;;;;;;;;;;;;;5037318;28;4930;-58
2023/03/30 03:40:22;;;;;;;;;;;;;;;;;;5063752;28;2165;-59
2023/03/30 03:42:48;;;;;;;;;;;;;;;;;;5047482;28;4643;-58
2023/03/30 03:45:13;;;;;;;;;;;;;;;;;;5047659;28;4632;-59
2023/03/30 03:47:38;;;;;;;;;;;;;;;;;;5047993;28;5247;-58
2023/03/30 03:50:08;;;;;;;;;;;;;;;;;;5040095;28;4747;-58
2023/03/30 03:52:33;;;;;;;;;;;;;;;;;;5042036;28;3453;-59
2023/03/30 03:54:58;;;;;;;;;;;;;;;;;;5035053;28;4482;-58
2023/03/30 03:57:24;;;;;;;;;;;;;;;;;;5038950;28;5249;-58
2023/03/30 03:59:50;;;;;;;;;;;;;;;;;;5047353;28;5085;-59
2023/03/30 04:02:15;;;;;;;;;;;;;;;;;;5034809;28;4671;-58
2023/03/30 04:04:40;;;;;;;;;;;;;;;;;;5040454;28;4998;-58
2023/03/30 04:07:06;;;;;;;;;;;;;;;;;;5039059;28;4415;-58
2023/03/30 04:09:31;;;;;;;;;;;;;;;;;;5047706;28;4585;-58
2023/03/30 04:11:56;;;;;;;;;;;;;;;;;;5047448;28;5431;-58
2023/03/30 04:14:21;;;;;;;;;;;;;;;;;;5047729;28;4983;-58
2023/03/30 04:16:47;;;;;;;;;;;;;;;;;;5048943;28;1105;-58
2023/03/30 04:19:14;;;;;;;;;;;;;;;;;;5046034;28;4999;-58
2023/03/30 04:21:40;;;;;;;;;;;;;;;;;;5048114;28;5077;-58
2023/03/30 04:24:05;;;;;;;;;;;;;;;;;;5048483;28;5020;-58
2023/03/30 04:26:31;;;;;;;;;;;;;;;;;;5051524;28;4477;-58
2023/03/30 04:28:56;;;;;;;;;;;;;;;;;;5052090;28;1159;-58
2023/03/30 04:31:25;;;;;;;;;;;;;;;;;;5048758;28;4904;-59
2023/03/30 04:33:52;;;;;;;;;;;;;;;;;;5044431;28;4558;-57
2023/03/30 04:36:17;;;;;;;;;;;;;;;;;;5052277;28;5176;-57
2023/03/30 04:38:58;;;;;;;;;;;;;;;;;;5047581;28;4499;-58
2023/03/30 04:41:28;;;;;;;;;;;;;;;;;;5046126;28;4621;-57
2023/03/30 04:43:54;;;;;;;;;;;;;;;;;;5040128;28;3195;-57
2023/03/30 04:46:19;;;;;;;;;;;;;;;;;;5051471;28;4679;-58
2023/03/30 04:48:44;;;;;;;;;;;;;;;;;;5051480;28;5109;-58
2023/03/30 04:51:10;;;;;;;;;;;;;;;;;;5051549;28;4647;-58
2023/03/30 04:53:35;;;;;;;;;;;;;;;;;;5050082;28;4534;-57
2023/03/30 04:56:01;;;;;;;;;;;;;;;;;;5042697;28;4657;-58
2023/03/30 04:58:26;;;;;;;;;;;;;;;;;;5048160;28;3186;-59
2023/03/30 05:00:52;;;;;;;;;;;;;;;;;;5047897;28;4929;-57
2023/03/30 05:03:18;;;;;;;;;;;;;;;;;;5031493;28;4880;-58
2023/03/30 05:05:43;;;;;;;;;;;;;;;;;;5047877;28;4920;-57
2023/03/30 05:08:08;;;;;;;;;;;;;;;;;;5047673;28;4623;-58
2023/03/30 05:10:34;;;;;;;;;;;;;;;;;;5051444;28;1189;-58
2023/03/30 05:12:59;;;;;;;;;;;;;;;;;;5051084;28;4903;-57
2023/03/30 05:15:24;;;;;;;;;;;;;;;;;;5051216;28;4928;-57
2023/03/30 05:17:50;;;;;;;;;;;;;;;;;;5050773;28;4479;-57
2023/03/30 05:20:15;;;;;;;;;;;;;;;;;;5050550;28;4839;-58
2023/03/30 05:22:41;;;;;;;;;;;;;;;;;;5051856;28;1144;-57
2023/03/30 05:25:06;;;;;;;;;;;;;;;;;;5050567;28;5056;-58
2023/03/30 05:27:31;;;;;;;;;;;;;;;;;;5050811;28;4954;-58
2023/03/30 05:29:57;;;;;;;;;;;;;;;;;;5060759;28;4488;-58
2023/03/30 05:32:22;;;;;;;;;;;;;;;;;;5039858;28;5029;-58
2023/03/30 05:34:47;;;;;;;;;;;;;;;;;;5050720;28;3485;-58
2023/03/30 05:37:13;;;;;;;;;;;;;;;;;;5045965;28;4448;-59
2023/03/30 05:39:38;;;;;;;;;;;;;;;;;;5050191;28;5039;-58
2023/03/30 05:42:04;;;;;;;;;;;;;;;;;;5065562;28;4920;-58
2023/03/30 05:44:29;;;;;;;;;;;;;;;;;;5047072;28;5108;-58
2023/03/30 05:46:55;;;;;;;;;;;;;;;;;;5043117;28;3357;-58
2023/03/30 05:49:20;;;;;;;;;;;;;;;;;;5038567;28;4383;-59
2023/03/30 05:51:45;;;;;;;;;;;;;;;;;;5044971;28;5047;-59
2023/03/30 05:54:11;;;;;;;;;;;;;;;;;;5041151;28;4506;-59
2023/03/30 05:56:36;;;;;;;;;;;;;;;;;;5042320;28;4730;-59
2023/03/30 05:59:04;;;;;;;;;;;;;;;;;;5048830;28;4606;-59
2023/03/30 06:01:29;;;;;;;;;;;;;;;;;;5038694;28;1356;-59
2023/03/30 06:03:55;;;;;;;;;;;;;;;;;;5042299;28;4793;-58
2023/03/30 06:06:21;;;;;;;;;;;;;;;;;;5048533;28;4540;-59
2023/03/30 06:08:46;;;;;;;;;;;;;;;;;;5048714;28;4442;-59
2023/03/30 06:11:12;;;;;;;;;;;;;;;;;;5049458;28;4450;-59
2023/03/30 06:13:38;;;;;;;;;;;;;;;;;;5050673;28;1183;-59
2023/03/30 06:16:03;;;;;;;;;;;;;;;;;;5049867;28;5051;-59
2023/03/30 06:18:28;;;;;;;;;;;;;;;;;;5049670;28;4619;-59
2023/03/30 06:20:54;;;;;;;;;;;;;;;;;;5047750;28;4474;-59
2023/03/30 06:23:20;;;;;;;;;;;;;;;;;;5049428;28;5025;-58
2023/03/30 06:25:46;;;;;;;;;;;;;;;;;;5049770;28;1918;-59
2023/03/30 06:28:11;;;;;;;;;;;;;;;;;;5049604;28;5100;-59
2023/03/30 06:30:37;;;;;;;;;;;;;;;;;;5045885;28;4481;-58
2023/03/30 06:33:02;;;;;;;;;;;;;;;;;;5043774;28;4675;-59
2023/03/30 06:35:28;;;;;;;;;;;;;;;;;;5039726;28;4519;-59
2023/03/30 06:37:53;;;;;;;;;;;;;;;;;;5031135;28;3095;-59
2023/03/30 06:40:18;;;;;;;;;;;;;;;;;;5071661;28;5169;-58
2023/03/30 06:42:43;;;;;;;;;;;;;;;;;;5035564;28;4527;-59
2023/03/30 06:45:10;;;;;;;;;;;;;;;;;;5035891;28;4495;-59
2023/03/30 06:47:35;;;;;;;;;;;;;;;;;;5045852;28;5014;-59
2023/03/30 06:50:00;;;;;;;;;;;;;;;;;;5048729;28;4657;-59
2023/03/30 06:52:26;;;;;;;;;;;;;;;;;;5049553;28;1104;-59
2023/03/30 06:54:51;;;;;;;;;;;;;;;;;;5049274;28;5022;-59
2023/03/30 06:57:16;;;;;;;;;;;;;;;;;;5047283;28;4478;-59
2023/03/30 06:59:41;;;;;;;;;;;;;;;;;;5048837;28;5012;-59
2023/03/30 07:02:11;;;;;;;;;;;;;;;;;;5033333;28;4690;-59
2023/03/30 07:04:36;;;;;;;;;;;;;;;;;;5063070;28;4837;-58
2023/03/30 07:07:02;;;;;;;;;;;;;;;;;;5049133;28;4658;-59
2023/03/30 07:09:27;;;;;;;;;;;;;;;;;;5043493;28;4614;-59
2023/03/30 07:11:52;;;;;;;;;;;;;;;;;;5039565;28;5024;-58
2023/03/30 07:14:18;;;;;;;;;;;;;;;;;;5041548;28;4518;-59
2023/03/30 07:16:43;;;;;;;;;;;;;;;;;;5036486;28;3234;-55
2023/03/30 07:19:08;;;;;;;;;;;;;;;;;;5045409;28;4484;-58
2023/03/30 07:21:33;;;;;;;;;;;;;;;;;;5048122;28;4482;-59
2023/03/30 07:24:02;;;;;;;;;;;;;;;;;;5048718;28;4602;-58
2023/03/30 07:26:27;;;;;;;;;;;;;;;;;;5045370;28;4534;-58
2023/03/30 07:28:53;;;;;;;;;;;;;;;;;;5045287;28;3358;-58
2023/03/30 07:31:20;;;;;;;;;;;;;;;;;;5041644;28;4376;-58
2023/03/30 07:33:45;;;;;;;;;;;;;;;;;;5037170;28;4400;-58
2023/03/30 07:36:11;;;;;;;;;;;;;;;;;;5048292;28;5002;-58
2023/03/30 07:38:36;;;;;;;;;;;;;;;;;;5048095;28;4498;-57
2023/03/30 07:41:05;;;;;;;;;;;;;;;;;;5047819;28;4502;-57
2023/03/30 07:43:30;;;;;;;;;;;;;;;;;;5047485;28;3234;-59
2023/03/30 07:45:55;;;;;;;;;;;;;;;;;;5045430;28;5036;-58
2023/03/30 07:48:21;;;;;;;;;;;;;;;;;;5044115;28;4489;-58
2023/03/30 07:50:46;;;;;;;;;;;;;;;;;;5047644;28;5159;-58
2023/03/30 07:53:12;;;;;;;;;;;;;;;;;;5048014;28;4483;-58
2023/03/30 07:55:37;;;;;;;;;;;;;;;;;;5048864;28;1135;-58
2023/03/30 07:58:03;;;;;;;;;;;;;;;;;;5044050;28;4393;-58
2023/03/30 08:00:29;;;;;;;;;;;;;;;;;;5045431;28;5585;-58
2023/03/30 08:02:55;;;;;;;;;;;;;;;;;;5045704;28;5479;-58
2023/03/30 08:05:20;;;;;;;;;;;;;;;;;;5037298;28;4952;-58
2023/03/30 08:07:46;;;;;;;;;;;;;;;;;;5042997;28;1156;-58
2023/03/30 08:10:12;;;;;;;;;;;;;;;;;;5046996;28;4450;-57
2023/03/30 08:12:37;;;;;;;;;;;;;;;;;;5046844;28;4658;-58
2023/03/30 08:15:03;;;;;;;;;;;;;;;;;;5048012;28;4492;-58
2023/03/30 08:17:28;;;;;;;;;;;;;;;;;;5047476;28;4657;-57
2023/03/30 08:19:55;;;;;;;;;;;;;;;;;;5048630;28;1227;-58
2023/03/30 08:22:21;;;;;;;;;;;;;;;;;;5047702;28;4907;-55
2023/03/30 08:24:46;;;;;;;;;;;;;;;;;;5047712;28;4952;-57
2023/03/30 08:27:11;;;;;;;;;;;;;;;;;;5047913;28;4639;-58
2023/03/30 08:29:37;;;;;;;;;;;;;;;;;;5047151;28;5010;-57
2023/03/30 08:32:02;;;;;;;;;;;;;;;;;;5046326;28;4448;-57
2023/03/30 08:34:28;;;;;;;;;;;;;;;;;;5047878;28;1159;-58
2023/03/30 08:36:53;;;;;;;;;;;;;;;;;;5046249;28;5024;-58
2023/03/30 08:39:19;;;;;;;;;;;;;;;;;;5047697;28;4986;-58
2023/03/30 08:42:03;;;;;;;;;;;;;;;;;;5047581;28;5900;-58
2023/03/30 08:44:38;;;;;;;;;;;;;;;;;;5048364;28;4819;-58
2023/03/30 08:47:05;;;;;;;;;;;;;;;;;;5074233;28;4643;-58
2023/03/30 08:49:32;;;;;;;;;;;;;;;;;;5047105;28;1152;-58
2023/03/30 08:51:57;;;;;;;;;;;;;;;;;;5046451;28;4477;-58
2023/03/30 08:54:24;;;;;;;;;;;;;;;;;;5046147;28;5175;-57
2023/03/30 08:56:59;;;;;;;;;;;;;;;;;;5044895;28;6231;-58
2023/03/30 08:59:43;;;;;;;;;;;;;;;;;;5047837;28;4664;-58
2023/03/30 09:02:08;;;;;;;;;;;;;;;;;;5044586;28;5067;-58
2023/03/30 09:04:41;;;;;;;;;;;;;;;;;;5048254;28;4678;-57
2023/03/30 09:07:39;;;;;;;;;;;;;;;;;;5079895;28;4428;-58
2023/03/30 09:10:09;;;;;;;;;;;;;;;;;;5039889;28;5018;-58
2023/03/30 09:12:37;;;;;;;;;;;;;;;;;;5081796;28;4524;-58
2023/03/30 09:15:04;;;;;;;;;;;;;;;;;;5045890;28;5428;-58
2023/03/30 09:17:45;;;;;;;;;;;;;;;;;;5049442;28;4964;-57
2023/03/30 09:20:13;;;;;;;;;;;;;;;;;;5050357;28;4496;-58
2023/03/30 09:22:39;;;;;;;;;;;;;;;;;;5051071;28;1231;-58
2023/03/30 09:25:15;;;;;;;;;;;;;;;;;;5050030;28;4650;-57
2023/03/30 09:27:44;;;;;;;;;;;;;;;;;;5050123;28;4681;-58
2023/03/30 09:30:15;;;;;;;;;;;;;;;;;;5082216;28;4890;-57
2023/03/30 09:32:41;;;;;;;;;;;;;;;;;;5064820;28;4651;-57
2023/03/30 09:35:20;;;;;;;;;;;;;;;;;;5044499;28;4782;-57
2023/03/30 09:37:45;;;;;;;;;;;;;;;;;;5065934;28;3415;-57
2023/03/30 09:40:17;;;;;;;;;;;;;;;;;;5036794;28;5042;-58
2023/03/30 09:42:46;;;;;;;;;;;;;;;;;;5064159;28;5006;-58
2023/03/30 09:45:21;;;;;;;;;;;;;;;;;;5047950;28;4517;-58
2023/03/30 09:47:47;;;;;;;;;;;;;;;;;;5046098;28;4673;-58
2023/03/30 09:50:16;;;;;;;;;;;;;;;;;;5049053;28;5146;-58
2023/03/30 09:52:41;;;;;;;;;;;;;;;;;;5043213;28;3261;-59
2023/03/30 09:55:19;;;;;;;;;;;;;;;;;;5046551;28;4660;-58
2023/03/30 09:57:44;;;;;;;;;;;;;;;;;;5045647;28;4481;-58
2023/03/30 10:00:26;;;;;;;;;;;;;;;;;;5045546;28;4702;-58
2023/03/30 10:03:15;;;;;;;;;;;;;;;;;;5035087;28;4711;-59
2023/03/30 10:05:40;;;;;;;;;;;;;;;;;;5037442;28;4919;-58
2023/03/30 10:08:16;;;;;;;;;;;;;;;;;;5041988;28;4472;-57
2023/03/30 10:10:41;;;;;;;;;;;;;;;;;;5043428;28;3257;-58
2023/03/30 10:13:08;;;;;;;;;;;;;;;;;;5049032;28;4953;-58
2023/03/30 10:15:35;;;;;;;;;;;;;;;;;;5047363;28;4932;-58
2023/03/30 10:18:17;;;;;;;;;;;;;;;;;;5046184;28;4550;-56
2023/03/30 10:20:43;;;;;;;;;;;;;;;;;;5080190;28;4657;-57
2023/03/30 10:23:12;;;;;;;;;;;;;;;;;;5044783;28;5076;-58
2023/03/30 10:25:39;;;;;;;;;;;;;;;;;;5048788;28;3105;-57
2023/03/30 10:28:05;;;;;;;;;;;;;;;;;;5048621;28;4844;-59
2023/03/30 10:30:31;;;;;;;;;;;;;;;;;;5044841;28;4944;-60
2023/03/30 10:32:57;;;;;;;;;;;;;;;;;;5046135;28;5020;-58
2023/03/30 10:35:23;;;;;;;;;;;;;;;;;;5048744;28;4533;-57
2023/03/30 10:37:49;;;;;;;;;;;;;;;;;;5047056;28;3194;-57
2023/03/30 10:40:22;;;;;;;;;;;;;;;;;;5048181;28;4379;-57
2023/03/30 10:42:54;;;;;;;;;;;;;;;;;;5047945;28;4462;-57
2023/03/30 10:45:20;;;;;;;;;;;;;;;;;;5043273;28;4633;-57
2023/03/30 10:47:48;;;;;;;;;;;;;;;;;;5046716;28;5078;-57
2023/03/30 10:50:25;;;;;;;;;;;;;;;;;;5047633;28;4494;-57
2023/03/30 10:53:09;;;;;;;;;;;;;;;;;;5047306;28;1175;-57
2023/03/30 10:55:55;;;;;;;;;;;;;;;;;;5048296;28;5034;-57
2023/03/30 10:58:23;;;;;;;;;;;;;;;;;;5046191;28;5149;-63
2023/03/30 11:00:48;;;;;;;;;;;;;;;;;;5043973;28;4573;-61
2023/03/30 11:03:16;;;;;;;;;;;;;;;;;;5047222;28;4644;-62
2023/03/30 11:05:48;;;;;;;;;;;;;;;;;;5045757;28;4777;-62
2023/03/30 11:08:13;;;;;;;;;;;;;;;;;;5046369;28;4993;-63
2023/03/30 11:10:42;;;;;;;;;;;;;;;;;;5048023;28;1140;-60
2023/03/30 11:13:21;;;;;;;;;;;;;;;;;;5043787;28;4616;-64
2023/03/30 11:15:52;;;;;;;;;;;;;;;;;;5047704;28;4452;-65
2023/03/30 11:18:20;;;;;;;;;;;;;;;;;;5044357;28;4521;-63
2023/03/30 11:20:59;;;;;;;;;;;;;;;;;;5047221;28;5091;-64
2023/03/30 11:23:26;;;;;;;;;;;;;;;;;;5039132;28;4690;-66
2023/03/30 11:25:51;;;;;;;;;;;;;;;;;;5043338;28;1914;-65
2023/03/30 11:28:19;;;;;;;;;;;;;;;;;;5039342;28;4413;-63
2023/03/30 11:30:45;;;;;;;;;;;;;;;;;;5038490;28;4594;-62
2023/03/30 11:33:29;;;;;;;;;;;;;;;;;;5045375;28;5252;-63
2023/03/30 11:35:55;;;;;;;;;;;;;;;;;;5047008;28;4499;-65
2023/03/30 11:38:27;;;;;;;;;;;;;;;;;;5049085;28;4536;-61
2023/03/30 11:40:57;;;;;;;;;;;;;;;;;;5036454;28;3348;-61
2023/03/30 11:43:23;;;;;;;;;;;;;;;;;;5033144;28;4328;-73
2023/03/30 11:45:50;;;;;;;;;;;;;;;;;;5080736;28;4685;-59
2023/03/30 11:48:16;;;;;;;;;;;;;;;;;;5048939;28;4665;-61
2023/03/30 11:51:00;;;;;;;;;;;;;;;;;;5047564;28;4523;-62
2023/03/30 11:53:32;;;;;;;;;;;;;;;;;;5049104;28;4928;-64
2023/03/30 11:56:04;;;;;;;;;;;;;;;;;;5079846;28;5628;-63
2023/03/30 11:58:35;;;;;;;;;;;;;;;;;;5079426;28;1029;-62
2023/03/30 12:01:01;;;;;;;;;;;;;;;;;;5045870;28;4434;-62
2023/03/30 12:03:37;;;;;;;;;;;;;;;;;;5048572;28;4495;-63
2023/03/30 12:06:05;;;;;;;;;;;;;;;;;;5047018;28;4955;-62
2023/03/30 12:08:41;;;;;;;;;;;;;;;;;;5080145;28;4458;-62
2023/03/30 12:11:35;;;;;;;;;;;;;;;;;;5080079;28;5255;-63
2023/03/30 12:14:00;;;;;;;;;;;;;;;;;;5042225;28;5251;-62
2023/03/30 12:16:30;;;;;;;;;;;;;;;;;;5046232;28;1101;-62
2023/03/30 12:18:55;;;;;;;;;;;;;;;;;;5046093;28;5101;-62
2023/03/30 12:21:27;;;;;;;;;;;;;;;;;;5045762;28;4613;-62
2023/03/30 12:23:55;;;;;;;;;;;;;;;;;;5045938;28;4517;-62
2023/03/30 12:26:23;;;;;;;;;;;;;;;;;;5047482;28;5256;-63
2023/03/30 12:28:58;;;;;;;;;;;;;;;;;;5048695;28;1084;-63
2023/03/30 12:31:43;;;;;;;;;;;;;;;;;;5039893;28;5217;-63
2023/03/30 12:34:09;;;;;;;;;;;;;;;;;;5033050;28;4478;-63
2023/03/30 12:36:38;;;;;;;;;;;;;;;;;;5047968;28;4474;-62
2023/03/30 12:39:24;;;;;;;;;;;;;;;;;;5078676;28;4997;-62
2023/03/30 12:41:50;;;;;;;;;;;;;;;;;;5036247;28;5023;-62
2023/03/30 12:44:15;;;;;;;;;;;;;;;;;;5046577;28;5198;-62
2023/03/30 12:46:48;;;;;;;;;;;;;;;;;;5051501;28;1917;-62
2023/03/30 12:49:35;;;;;;;;;;;;;;;;;;5072693;28;4630;-63
2023/03/30 12:52:09;;;;;;;;;;;;;;;;;;5019523;28;5030;-62
2023/03/30 12:54:37;;;;;;;;;;;;;;;;;;5081080;28;5009;-63
2023/03/30 12:57:26;;;;;;;;;;;;;;;;;;5048010;28;4572;-64
2023/03/30 13:00:29;;;;;;;;;;;;;;;;;;5050682;28;4561;-65
2023/03/30 13:03:07;;;;;;;;;;;;;;;;;;5007244;28;5634;-65
2023/03/30 13:05:33;;;;;;;;;;;;;;;;;;5006858;28;4981;-63
2023/03/30 13:08:09;;;;;;;;;;;;;;;;;;5023653;28;5050;-63
2023/03/30 13:10:36;;;;;;;;;;;;;;;;;;5051181;28;1626;-63
2023/03/30 13:13:02;;;;;;;;;;;;;;;;;;5051068;28;4626;-63
2023/03/30 13:15:33;;;;;;;;;;;;;;;;;;5048300;28;4682;-64
2023/03/30 13:17:59;;;;;;;;;;;;;;;;;;5042235;28;5060;-61
2023/03/30 13:20:32;;;;;;;;;;;;;;;;;;5048569;28;4869;-66
2023/03/30 13:23:05;;;;;;;;;;;;;;;;;;5037112;28;4535;-64
2023/03/30 13:25:38;;;;;;;;;;;;;;;;;;5051466;28;1910;-63
2023/03/30 13:28:23;;;;;;;;;;;;;;;;;;5070326;28;4675;-63
2023/03/30 13:30:48;;;;;;;;;;;;;;;;;;5045368;28;4663;-60
2023/03/30 13:33:14;;;;;;;;;;;;;;;;;;5080418;28;4857;-65
2023/03/30 13:35:49;;;;;;;;;;;;;;;;;;5081963;28;5021;-60
2023/03/30 13:38:14;;;;;;;;;;;;;;;;;;5050138;28;4496;-62
2023/03/30 13:40:42;;;;;;;;;;;;;;;;;;5045927;28;3230;-65
2023/03/30 13:43:10;;;;;;;;;;;;;;;;;;5044323;28;5041;-63
2023/03/30 13:45:36;;;;;;;;;;;;;;;;;;5047513;28;4691;-63
2023/03/30 13:48:19;;;;;;;;;;;;;;;;;;5045791;28;4556;-63
2023/03/30 13:50:51;;;;;;;;;;;;;;;;;;5049105;28;4682;-67
2023/03/30 13:53:16;;;;;;;;;;;;;;;;;;5076602;28;4669;-63
2023/03/30 13:55:42;;;;;;;;;;;;;;;;;;5057444;28;3197;-64
2023/03/30 13:58:15;;;;;;;;;;;;;;;;;;5078250;28;4537;-67
2023/03/30 14:00:50;;;;;;;;;;;;;;;;;;5037936;28;4583;-64
2023/03/30 14:03:28;;;;;;;;;;;;;;;;;;5046357;28;5778;-62
2023/03/30 14:05:57;;;;;;;;;;;;;;;;;;5048212;28;4920;-63
2023/03/30 14:08:22;;;;;;;;;;;;;;;;;;5050547;28;4633;-66
2023/03/30 14:10:50;;;;;;;;;;;;;;;;;;5046119;28;3271;-65
2023/03/30 14:13:16;;;;;;;;;;;;;;;;;;5063350;28;4773;-68
2023/03/30 14:15:41;;;;;;;;;;;;;;;;;;5063285;28;5023;-63
2023/03/30 14:18:08;;;;;;;;;;;;;;;;;;5080196;28;4595;-68
2023/03/30 14:20:39;;;;;;;;;;;;;;;;;;5047757;28;4880;-64
2023/03/30 14:23:05;;;;;;;;;;;;;;;;;;5049520;28;4676;-63
2023/03/30 14:25:39;;;;;;;;;;;;;;;;;;5050442;28;1914;-63
2023/03/30 14:28:06;;;;;;;;;;;;;;;;;;5050093;28;4408;-63
2023/03/30 14:30:33;;;;;;;;;;;;;;;;;;5048949;28;4490;-67
2023/03/30 14:33:05;;;;;;;;;;;;;;;;;;5047993;28;4723;-65
2023/03/30 14:35:31;;;;;;;;;;;;;;;;;;5078054;28;4957;-63
2023/03/30 14:37:56;;;;;;;;;;;;;;;;;;5050074;28;1016;-66
2023/03/30 14:40:21;;;;;;;;;;;;;;;;;;5081586;28;4588;-64
2023/03/30 14:42:46;;;;;;;;;;;;;;;;;;5079919;28;4754;-64
2023/03/30 14:45:14;;;;;;;;;;;;;;;;;;5030855;28;4436;-64
2023/03/30 14:47:40;;;;;;;;;;;;;;;;;;5060938;28;4512;-65
2023/03/30 14:50:07;;;;;;;;;;;;;;;;;;5036422;28;4803;-63
2023/03/30 14:52:41;;;;;;;;;;;;;;;;;;5050515;28;1025;-62
2023/03/30 14:55:09;;;;;;;;;;;;;;;;;;5040039;28;5083;-66
2023/03/30 14:57:36;;;;;;;;;;;;;;;;;;5062263;28;4426;-62
2023/03/30 15:02:57;;;;;;;;;;;;;;;;;;5052132;28;4966;-63
2023/03/30 15:05:23;;;;;;;;;;;;;;;;;;5047908;28;4960;-63
2023/03/30 15:07:49;;;;;;;;;;;;;;;;;;5025856;28;3285;-62
2023/03/30 15:10:21;;;;;;;;;;;;;;;;;;5076438;28;5026;-64
2023/03/30 15:12:46;;;;;;;;;;;;;;;;;;5062726;28;4521;-62
2023/03/30 15:15:12;;;;;;;;;;;;;;;;;;5044435;28;5185;-60
2023/03/30 15:17:37;;;;;;;;;;;;;;;;;;5042261;28;4504;-60
2023/03/30 15:20:06;;;;;;;;;;;;;;;;;;5045572;28;5030;-60
2023/03/30 15:22:51;;;;;;;;;;;;;;;;;;5071950;28;3239;-61
2023/03/30 15:25:18;;;;;;;;;;;;;;;;;;5047901;28;5181;-60
2023/03/30 15:27:44;;;;;;;;;;;;;;;;;;5047543;28;4560;-60
2023/03/30 15:30:21;;;;;;;;;;;;;;;;;;5072607;28;4525;-61
2023/03/30 15:32:47;;;;;;;;;;;;;;;;;;5039040;28;4963;-59
2023/03/30 15:35:18;;;;;;;;;;;;;;;;;;5047639;28;4517;-61
2023/03/30 15:37:56;;;;;;;;;;;;;;;;;;5041168;28;3313;-60
2023/03/30 15:40:40;;;;;;;;;;;;;;;;;;5045003;28;4971;-61
2023/03/30 15:43:12;;;;;;;;;;;;;;;;;;5065485;28;4505;-60
2023/03/30 15:45:37;;;;;;;;;;;;;;;;;;5076824;28;4486;-60
2023/03/30 15:48:07;;;;;;;;;;;;;;;;;;5047677;28;4623;-59
2023/03/30 15:50:33;;;;;;;;;;;;;;;;;;5063628;28;4618;-60
2023/03/30 15:52:59;;;;;;;;;;;;;;;;;;5063729;28;4605;-60
2023/03/30 15:55:25;;;;;;;;;;;;;;;;;;5048977;28;1085;-60
2023/03/30 15:57:50;;;;;;;;;;;;;;;;;;5027057;28;4764;-60
2023/03/30 16:00:16;;;;;;;;;;;;;;;;;;5079329;28;4953;-60
2023/03/30 16:02:48;;;;;;;;;;;;;;;;;;5031666;28;4474;-60
2023/03/30 16:05:17;;;;;;;;;;;;;;;;;;5035770;28;4991;-60
2023/03/30 16:07:43;;;;;;;;;;;;;;;;;;5048252;28;998;-60
2023/03/30 16:10:15;;;;;;;;;;;;;;;;;;5047768;28;4657;-61
2023/03/30 16:12:44;;;;;;;;;;;;;;;;;;5047790;28;4983;-59
2023/03/30 16:15:16;;;;;;;;;;;;;;;;;;5047937;28;5108;-59
2023/03/30 16:17:41;;;;;;;;;;;;;;;;;;5047597;28;5053;-60
2023/03/30 16:20:12;;;;;;;;;;;;;;;;;;5047101;28;4604;-60
2023/03/30 16:22:38;;;;;;;;;;;;;;;;;;5048091;28;1121;-60
2023/03/30 16:25:03;;;;;;;;;;;;;;;;;;5047957;28;4573;-60
2023/03/30 16:27:28;;;;;;;;;;;;;;;;;;5045928;28;4500;-60
2023/03/30 16:29:54;;;;;;;;;;;;;;;;;;5047592;28;4853;-59
2023/03/30 16:32:19;;;;;;;;;;;;;;;;;;5034705;28;4477;-59
2023/03/30 16:34:45;;;;;;;;;;;;;;;;;;5035710;28;1168;-59
2023/03/30 16:37:10;;;;;;;;;;;;;;;;;;5047348;28;4972;-60
2023/03/30 16:39:36;;;;;;;;;;;;;;;;;;5047343;28;5103;-60
2023/03/30 16:42:01;;;;;;;;;;;;;;;;;;5047005;28;4425;-60
2023/03/30 16:44:26;;;;;;;;;;;;;;;;;;5048345;28;4988;-60
2023/03/30 16:46:51;;;;;;;;;;;;;;;;;;5048290;28;1905;-60
2023/03/30 16:49:20;;;;;;;;;;;;;;;;;;5047355;28;5033;-60
2023/03/30 16:51:46;;;;;;;;;;;;;;;;;;5047438;28;4408;-59
2023/03/30 16:54:11;;;;;;;;;;;;;;;;;;5047476;28;4581;-59
2023/03/30 16:56:36;;;;;;;;;;;;;;;;;;5045248;28;5171;-61
2023/03/30 16:59:02;;;;;;;;;;;;;;;;;;5047258;28;5088;-61
2023/03/30 17:01:27;;;;;;;;;;;;;;;;;;5041354;28;1511;-60
2023/03/30 17:03:53;;;;;;;;;;;;;;;;;;5027648;28;4940;-60
2023/03/30 17:06:21;;;;;;;;;;;;;;;;;;5043743;28;5054;-59
2023/03/30 17:08:46;;;;;;;;;;;;;;;;;;5047233;28;4782;-60
2023/03/30 17:11:12;;;;;;;;;;;;;;;;;;5047467;28;4930;-59
2023/03/30 17:13:37;;;;;;;;;;;;;;;;;;5047869;28;1070;-60
2023/03/30 17:16:03;;;;;;;;;;;;;;;;;;5047445;28;4594;-60